Time;durP1;ratioP1;P1;durP2;ratioP2;P2;SDS_P1;SDS_P2;PMS_P1;PMS_P2;Temp;Humidity;BMP_temperature;BMP_pressure;BME280_temperature;BME280_humidity;BME280_pressure;Samples;Min_cycle;Max_cycle;Signal;HPM_P1;HPM_P2
2022/04/09 00:01:19;;;;;;;3.35;0.32;;;5.00;86.40;;;;;;4971153;28;20041;-80
2022/04/09 00:03:46;;;;;;;3.92;1.23;;;5.00;86.30;;;;;;4996409;28;20112;-81
2022/04/09 00:06:13;;;;;;;5.70;0.43;;;5.00;86.30;;;;;;4980358;28;20045;-81
2022/04/09 00:08:40;;;;;;;6.22;0.68;;;5.00;86.30;;;;;;4979710;28;20049;-82
2022/04/09 00:11:08;;;;;;;3.90;0.57;;;5.00;86.40;;;;;;4981292;28;20097;-82
2022/04/09 00:13:36;;;;;;;2.08;0.30;;;5.10;86.40;;;;;;4996861;28;20119;-82
2022/04/09 00:16:03;;;;;;;2.80;0.57;;;5.10;86.40;;;;;;4986740;28;20046;-82
2022/04/09 00:18:31;;;;;;;1.98;0.30;;;5.10;86.20;;;;;;4986784;28;20037;-81
2022/04/09 00:20:58;;;;;;;3.05;0.70;;;5.10;86.20;;;;;;4983443;28;20050;-81
2022/04/09 00:23:25;;;;;;;1.98;0.70;;;5.10;86.10;;;;;;4979365;28;20128;-82
2022/04/09 00:25:52;;;;;;;8.55;1.13;;;5.10;86.20;;;;;;4973681;28;20046;-82
2022/04/09 00:28:19;;;;;;;2.38;0.63;;;5.10;86.20;;;;;;4952337;28;20521;-81
2022/04/09 00:30:46;;;;;;;7.90;0.55;;;5.10;86.20;;;;;;4981319;28;20557;-82
2022/04/09 00:33:15;;;;;;;4.35;0.88;;;5.10;86.30;;;;;;4949425;28;20449;-82
2022/04/09 00:35:42;;;;;;;6.00;0.88;;;5.10;86.30;;;;;;4985205;28;20537;-81
2022/04/09 00:38:10;;;;;;;4.32;0.57;;;5.00;86.30;;;;;;4985584;28;20066;-80
2022/04/09 00:40:38;;;;;;;3.20;0.60;;;5.00;86.30;;;;;;5011393;28;20045;-82
2022/04/09 00:43:05;;;;;;;3.78;0.40;;;5.00;86.40;;;;;;4992150;28;20411;-82
2022/04/09 00:45:32;;;;;;;2.65;0.47;;;5.00;86.40;;;;;;4972345;28;20034;-84
2022/04/09 00:48:00;;;;;;;2.42;0.60;;;5.10;86.60;;;;;;4996813;28;20510;-84
2022/04/09 00:50:27;;;;;;;4.43;0.60;;;5.10;86.60;;;;;;4978847;28;20046;-84
2022/04/09 00:52:59;;;;;;;4.45;0.60;;;5.10;86.60;;;;;;4990203;28;20117;-84
2022/04/09 00:58:14;;;;;;;2.85;0.50;;;5.00;86.60;;;;;;4976618;28;20046;-84
2022/04/09 01:00:42;;;;;;;5.20;0.75;;;4.90;86.90;;;;;;4991452;28;20046;-84
2022/04/09 01:03:20;;;;;;;4.05;1.23;;;4.90;87.20;;;;;;4984878;28;20058;-84
2022/04/09 01:05:48;;;;;;;3.63;0.47;;;4.90;87.80;;;;;;4976148;28;20050;-84
2022/04/09 01:08:16;;;;;;;3.17;0.50;;;4.80;87.10;;;;;;4983422;28;20034;-84
2022/04/09 01:10:50;;;;;;;2.90;0.55;;;4.80;87.20;;;;;;4954052;28;20052;-84
2022/04/09 01:13:20;;;;;;;2.67;0.50;;;4.80;87.30;;;;;;4978312;28;20047;-84
2022/04/09 01:15:48;;;;;;;3.08;0.52;;;4.80;87.40;;;;;;4976926;28;20050;-84
2022/04/09 01:18:17;;;;;;;2.72;0.50;;;4.70;87.30;;;;;;4960624;28;20057;-84
2022/04/09 01:21:07;;;;;;;1.60;0.50;;;4.80;87.40;;;;;;4990074;28;20050;-84
2022/04/09 01:23:34;;;;;;;5.07;0.63;;;4.80;87.50;;;;;;4980993;28;20086;-84
2022/04/09 01:26:04;;;;;;;2.33;0.40;;;4.70;87.40;;;;;;4980654;28;20042;-84
2022/04/09 01:28:33;;;;;;;3.13;0.40;;;4.70;87.40;;;;;;4971569;28;20046;-82
2022/04/09 01:31:01;;;;;;;5.75;0.38;;;4.70;87.50;;;;;;4974533;28;20412;-81
2022/04/09 01:33:28;;;;;;;3.50;0.52;;;4.70;87.50;;;;;;4979021;28;20050;-81
2022/04/09 01:35:55;;;;;;;2.40;0.30;;;4.70;87.60;;;;;;4972993;28;20046;-82
2022/04/09 01:38:22;;;;;;;4.00;0.40;;;4.70;87.60;;;;;;4985831;28;20043;-81
2022/04/09 01:40:50;;;;;;;5.35;0.65;;;4.70;87.60;;;;;;4976996;28;20069;-82
2022/04/09 01:43:21;;;;;;;3.45;0.70;;;4.70;87.60;;;;;;4992867;28;20104;-82
2022/04/09 01:45:48;;;;;;;2.60;0.40;;;4.70;87.60;;;;;;4987672;28;20495;-81
2022/04/09 01:48:19;;;;;;;2.97;0.55;;;4.70;87.70;;;;;;4977126;28;20105;-81
2022/04/09 01:50:46;;;;;;;2.45;0.35;;;4.70;87.70;;;;;;4992355;28;20127;-81
2022/04/09 01:53:23;;;;;;;3.78;0.30;;;4.60;87.60;;;;;;4976485;28;20344;-82
2022/04/09 01:56:00;;;;;;;2.03;1.13;;;4.60;87.60;;;;;;4975871;28;20049;-81
2022/04/09 01:58:30;;;;;;;7.20;0.60;;;4.60;87.70;;;;;;4965110;28;20047;-81
2022/04/09 02:00:59;;;;;;;4.00;0.50;;;4.60;87.70;;;;;;4974014;28;20093;-84
2022/04/09 02:03:29;;;;;;;5.07;1.55;;;4.60;87.70;;;;;;4957516;28;20049;-84
2022/04/09 02:05:56;;;;;;;2.70;0.50;;;4.70;87.70;;;;;;4976485;28;20325;-84
2022/04/09 02:08:25;;;;;;;4.50;0.50;;;4.70;87.70;;;;;;5002436;28;20092;-83
2022/04/09 02:10:52;;;;;;;4.05;0.50;;;4.70;87.60;;;;;;4960163;28;20415;-83
2022/04/09 02:13:20;;;;;;;2.95;0.50;;;4.70;87.60;;;;;;4967257;28;20113;-83
2022/04/09 02:15:47;;;;;;;1.85;0.40;;;4.70;87.60;;;;;;4973279;28;20054;-83
2022/04/09 02:18:26;;;;;;;2.25;0.40;;;4.70;87.70;;;;;;4990596;28;20411;-83
2022/04/09 02:20:55;;;;;;;2.90;0.90;;;4.70;87.60;;;;;;4959383;28;20042;-83
2022/04/09 02:23:22;;;;;;;3.10;1.15;;;4.70;87.70;;;;;;4993447;28;20038;-83
2022/04/09 02:25:49;;;;;;;6.53;0.50;;;4.80;87.70;;;;;;4963380;28;20034;-83
2022/04/09 02:28:16;;;;;;;6.93;0.70;;;4.80;87.60;;;;;;4976544;28;20038;-83
2022/04/09 02:30:44;;;;;;;5.25;0.77;;;4.80;87.40;;;;;;4994136;28;20050;-83
2022/04/09 02:33:19;;;;;;;4.35;0.70;;;4.90;87.40;;;;;;4965028;28;20038;-83
2022/04/09 02:35:46;;;;;;;4.65;0.43;;;5.00;87.40;;;;;;4986862;28;20042;-84
2022/04/09 02:38:14;;;;;;;2.45;0.50;;;4.90;87.20;;;;;;4976172;28;20054;-84
2022/04/09 02:40:41;;;;;;;4.47;0.60;;;4.90;87.40;;;;;;4959118;28;20570;-83
2022/04/09 02:43:10;;;;;;;4.65;0.50;;;4.90;87.40;;;;;;4976325;28;20125;-83
2022/04/09 02:45:37;;;;;;;4.97;0.70;;;4.90;87.50;;;;;;4983671;28;20129;-83
2022/04/09 02:48:10;;;;;;;4.50;0.70;;;4.90;87.50;;;;;;4972987;28;20038;-83
2022/04/09 02:50:37;;;;;;;5.35;0.50;;;4.90;87.50;;;;;;4967818;28;20479;-83
2022/04/09 02:53:04;;;;;;;9.77;0.65;;;4.90;87.50;;;;;;4972797;28;20043;-83
2022/04/09 02:55:31;;;;;;;4.10;0.68;;;4.90;87.50;;;;;;4959958;28;20415;-84
2022/04/09 02:58:00;;;;;;;4.95;0.88;;;4.90;87.50;;;;;;4977526;28;20042;-84
2022/04/09 03:00:29;;;;;;;2.88;0.52;;;4.90;87.50;;;;;;4976527;28;20042;-84
2022/04/09 03:03:03;;;;;;;2.25;0.40;;;4.90;87.60;;;;;;4974929;28;20507;-84
2022/04/09 03:05:46;;;;;;;1.75;0.20;;;4.90;87.60;;;;;;4992743;28;20517;-84
2022/04/09 03:08:13;;;;;;;2.03;0.45;;;4.80;87.60;;;;;;4974941;28;20562;-84
2022/04/09 03:10:40;;;;;;;2.72;0.30;;;4.80;87.80;;;;;;4962698;28;20325;-83
2022/04/09 03:13:08;;;;;;;2.42;0.30;;;4.80;87.80;;;;;;5003490;28;20357;-84
2022/04/09 03:15:36;;;;;;;3.78;0.77;;;4.80;87.90;;;;;;4963126;28;20077;-84
2022/04/09 03:18:04;;;;;;;2.20;0.20;;;4.70;87.90;;;;;;4996285;28;20561;-84
2022/04/09 03:20:34;;;;;;;1.73;0.30;;;4.80;87.90;;;;;;4975156;28;20450;-84
2022/04/09 03:23:01;;;;;;;2.58;0.45;;;4.80;88.00;;;;;;5016915;28;20049;-84
2022/04/09 03:25:50;;;;;;;1.98;0.40;;;4.80;87.90;;;;;;4997293;28;20070;-84
2022/04/09 03:28:20;;;;;;;3.22;0.50;;;4.70;87.90;;;;;;4999406;28;20440;-84
2022/04/09 03:30:48;;;;;;;2.47;0.20;;;4.70;88.10;;;;;;4995931;28;20046;-83
2022/04/09 03:33:17;;;;;;;1.95;0.30;;;4.70;88.10;;;;;;4983982;28;20394;-84
2022/04/09 03:35:48;;;;;;;3.55;0.40;;;4.70;88.30;;;;;;4984928;28;20571;-84
2022/04/09 03:38:18;;;;;;;3.42;0.50;;;4.70;88.20;;;;;;4980400;28;20069;-84
2022/04/09 03:40:50;;;;;;;2.15;0.50;;;4.70;88.40;;;;;;4987050;28;20062;-84
2022/04/09 03:43:22;;;;;;;1.90;0.50;;;4.60;88.30;;;;;;4980648;28;20061;-83
2022/04/09 03:45:50;;;;;;;3.08;0.52;;;4.60;88.50;;;;;;4973291;28;20498;-84
2022/04/09 03:48:17;;;;;;;1.45;0.40;;;4.70;88.50;;;;;;4977164;28;20042;-84
2022/04/09 03:50:45;;;;;;;4.75;0.60;;;4.70;88.40;;;;;;5015172;28;20497;-84
2022/04/09 03:53:19;;;;;;;2.42;0.40;;;4.70;88.30;;;;;;4983711;28;20050;-83
2022/04/09 03:55:51;;;;;;;2.03;0.40;;;4.70;88.40;;;;;;4994525;28;20081;-83
2022/04/09 03:58:19;;;;;;;4.28;0.35;;;4.70;88.30;;;;;;4993778;28;20046;-84
2022/04/09 04:00:48;;;;;;;2.63;0.57;;;4.70;88.40;;;;;;5009575;28;20055;-84
2022/04/09 04:03:19;;;;;;;5.25;0.68;;;4.60;88.40;;;;;;4963582;28;20046;-84
2022/04/09 04:05:51;;;;;;;4.38;0.60;;;4.70;88.60;;;;;;4991311;28;20363;-83
2022/04/09 04:08:21;;;;;;;3.08;0.40;;;4.60;88.50;;;;;;4965837;28;20582;-83
2022/04/09 04:10:49;;;;;;;3.72;0.43;;;4.60;88.50;;;;;;4990236;28;20038;-83
2022/04/09 04:13:32;;;;;;;1.70;0.20;;;4.60;88.60;;;;;;4961059;28;20054;-83
2022/04/09 04:16:03;;;;;;;2.03;0.30;;;4.60;88.70;;;;;;4989934;28;20472;-84
2022/04/09 04:18:32;;;;;;;3.38;0.40;;;4.60;88.70;;;;;;4968874;28;20051;-84
2022/04/09 04:21:00;;;;;;;2.55;0.40;;;4.60;89.00;;;;;;4959333;28;20373;-84
2022/04/09 04:23:28;;;;;;;2.10;0.28;;;4.60;89.00;;;;;;4946883;28;20056;-83
2022/04/09 04:26:04;;;;;;;2.88;0.30;;;4.60;88.90;;;;;;4960068;28;20074;-83
2022/04/09 04:28:33;;;;;;;1.80;0.45;;;4.70;89.00;;;;;;4960167;28;20062;-83
2022/04/09 04:31:00;;;;;;;4.03;0.30;;;4.70;88.80;;;;;;4955838;28;20050;-83
2022/04/09 04:33:28;;;;;;;3.72;0.50;;;4.80;88.80;;;;;;4949533;28;20050;-83
2022/04/09 04:35:56;;;;;;;4.63;0.50;;;4.70;88.70;;;;;;4943775;28;20054;-83
2022/04/09 04:38:27;;;;;;;2.67;0.30;;;4.80;88.90;;;;;;4944076;28;20133;-83
2022/04/09 04:40:59;;;;;;;2.55;0.40;;;4.80;88.80;;;;;;4959871;28;20054;-84
2022/04/09 04:43:28;;;;;;;2.13;0.30;;;4.80;88.80;;;;;;4950711;28;20047;-84
2022/04/09 04:45:55;;;;;;;1.50;0.30;;;4.70;88.80;;;;;;4958686;28;20054;-83
2022/04/09 04:48:23;;;;;;;3.10;0.30;;;4.70;89.00;;;;;;4955855;28;20051;-82
2022/04/09 04:50:51;;;;;;;4.65;0.60;;;4.70;89.10;;;;;;4954786;28;20047;-81
2022/04/09 04:53:19;;;;;;;1.98;0.28;;;4.70;89.10;;;;;;4983774;28;20042;-81
2022/04/09 04:55:52;;;;;;;2.90;0.50;;;4.70;89.10;;;;;;4959037;28;20049;-81
2022/04/09 04:58:23;;;;;;;1.05;0.30;;;4.70;89.00;;;;;;4955889;28;20102;-81
2022/04/09 05:00:54;;;;;;;2.35;0.45;;;4.60;89.10;;;;;;4967344;28;20055;-81
2022/04/09 05:03:22;;;;;;;5.18;0.60;;;4.70;89.30;;;;;;4934757;29;20098;-82
2022/04/09 05:06:11;;;;;;;2.13;0.40;;;4.70;89.30;;;;;;4963035;28;20039;-82
2022/04/09 05:08:40;;;;;;;4.03;0.77;;;4.70;89.00;;;;;;4959569;28;20047;-82
2022/04/09 05:11:10;;;;;;;6.20;0.65;;;4.80;88.80;;;;;;4965519;28;20055;-81
2022/04/09 05:13:38;;;;;;;2.40;0.20;;;4.80;88.80;;;;;;4972040;28;20054;-82
2022/04/09 05:16:07;;;;;;;1.80;0.40;;;4.80;88.70;;;;;;4966368;28;20034;-81
2022/04/09 05:18:39;;;;;;;;;;;4.90;88.60;;;;;;4964480;28;20043;-82
2022/04/09 05:21:07;;;;;;;1.25;0.20;;;4.90;88.50;;;;;;5000918;28;19960;-82
2022/04/09 05:23:35;;;;;;;3.10;0.45;;;4.90;88.50;;;;;;4999250;28;20072;-82
2022/04/09 05:26:02;;;;;;;1.73;0.20;;;4.90;88.50;;;;;;4962409;28;20050;-82
2022/04/09 05:28:29;;;;;;;2.63;0.25;;;4.90;88.40;;;;;;4987845;28;20038;-82
2022/04/09 05:30:56;;;;;;;2.00;0.47;;;4.90;88.40;;;;;;5000726;28;20137;-82
2022/04/09 05:33:23;;;;;;;0.93;0.25;;;4.90;88.40;;;;;;4983451;28;20088;-82
2022/04/09 05:36:02;;;;;;;3.00;0.20;;;4.90;89.00;;;;;;4981447;28;20466;-81
2022/04/09 05:38:30;;;;;;;1.77;0.30;;;4.90;88.50;;;;;;4993380;28;20042;-84
2022/04/09 05:40:59;;;;;;;1.83;0.40;;;4.90;88.50;;;;;;4981568;28;21112;-84
2022/04/09 05:43:28;;;;;;;2.55;0.35;;;5.00;88.70;;;;;;4978687;28;20132;-84
2022/04/09 05:45:58;;;;;;;3.90;0.38;;;5.10;88.40;;;;;;4965962;28;20517;-84
2022/04/09 05:48:31;;;;;;;3.15;0.40;;;5.10;88.30;;;;;;4966333;28;20175;-84
2022/04/09 05:50:59;;;;;;;2.35;0.20;;;5.10;88.40;;;;;;4981001;28;20050;-84
2022/04/09 05:53:29;;;;;;;2.15;0.30;;;5.10;88.50;;;;;;5003706;28;20073;-84
2022/04/09 05:55:58;;;;;;;4.00;0.30;;;5.10;88.60;;;;;;4982753;28;20116;-84
2022/04/09 05:58:31;;;;;;;2.20;0.20;;;5.10;88.70;;;;;;5000162;28;20060;-84
2022/04/09 06:01:01;;;;;;;3.58;0.30;;;5.10;88.70;;;;;;4981990;28;20136;-84
2022/04/09 06:03:32;;;;;;;0.70;0.20;;;5.10;88.60;;;;;;4956610;28;20046;-85
2022/04/09 06:06:00;;;;;;;2.88;0.40;;;5.20;88.50;;;;;;4968019;28;20496;-85
2022/04/09 06:08:36;;;;;;;2.88;0.65;;;5.30;88.40;;;;;;4987026;28;20045;-85
2022/04/09 06:11:14;;;;;;;2.75;0.20;;;5.40;88.30;;;;;;5012839;28;20052;-85
2022/04/09 06:13:42;;;;;;;0.90;0.40;;;5.50;88.10;;;;;;4980498;28;20049;-85
2022/04/09 06:16:10;;;;;;;2.28;0.30;;;5.60;88.00;;;;;;5002974;28;20455;-85
2022/04/09 06:18:42;;;;;;;3.00;0.73;;;5.80;87.80;;;;;;4978686;28;20133;-85
2022/04/09 06:21:10;;;;;;;4.90;0.38;;;6.00;87.60;;;;;;4979094;28;20073;-85
2022/04/09 06:23:37;;;;;;;1.98;0.32;;;6.20;87.20;;;;;;4975912;28;20065;-84
2022/04/09 06:26:04;;;;;;;3.55;0.68;;;6.40;86.70;;;;;;4974728;28;20153;-82
2022/04/09 06:28:34;;;;;;;4.25;0.40;;;6.40;86.40;;;;;;5006458;28;20498;-82
2022/04/09 06:31:01;;;;;;;4.90;0.75;;;6.40;86.40;;;;;;4985669;28;20038;-84
2022/04/09 06:33:30;;;;;;;2.60;0.47;;;6.40;86.30;;;;;;4976729;28;20034;-83
2022/04/09 06:36:03;;;;;;;4.40;0.55;;;6.50;86.30;;;;;;4976727;28;20104;-84
2022/04/09 06:38:31;;;;;;;1.95;0.30;;;6.50;86.00;;;;;;4964015;28;20052;-83
2022/04/09 06:41:01;;;;;;;1.80;0.30;;;6.60;86.10;;;;;;4968104;28;20049;-83
2022/04/09 06:43:36;;;;;;;1.55;0.30;;;6.60;85.90;;;;;;4966975;28;20144;-83
2022/04/09 06:46:08;;;;;;;;;;;6.70;85.70;;;;;;4987786;28;20076;-83
2022/04/09 06:48:50;;;;;;;2.03;0.30;;;6.70;85.20;;;;;;4991907;28;19922;-83
2022/04/09 06:51:32;;;;;;;;;;;6.80;85.60;;;;;;5000261;28;20045;-84
2022/04/09 06:54:11;;;;;;;1.88;0.40;;;6.90;84.80;;;;;;5010686;28;20393;-85
2022/04/09 06:56:39;;;;;;;4.38;0.40;;;6.90;84.70;;;;;;4983203;28;20761;-86
2022/04/09 06:59:06;;;;;;;6.88;0.40;;;6.90;84.80;;;;;;4987456;28;20046;-86
2022/04/09 07:01:33;;;;;;;2.63;0.40;;;6.90;84.90;;;;;;4996724;28;20058;-87
2022/04/09 07:04:03;;;;;;;4.65;0.70;;;6.90;84.80;;;;;;5005046;28;20046;-87
2022/04/09 07:06:31;;;;;;;3.72;0.38;;;7.00;85.00;;;;;;4963790;28;20046;-87
2022/04/09 07:08:58;;;;;;;3.97;0.30;;;7.10;84.90;;;;;;4995111;28;20053;-86
2022/04/09 07:11:26;;;;;;;3.28;0.50;;;7.20;84.70;;;;;;4983728;28;20042;-86
2022/04/09 07:13:54;;;;;;;3.35;0.60;;;7.30;84.50;;;;;;4960321;28;20074;-86
2022/04/09 07:16:21;;;;;;;2.92;0.47;;;7.30;84.20;;;;;;4981706;28;20038;-86
2022/04/09 07:18:48;;;;;;;3.42;0.60;;;7.30;84.30;;;;;;4978203;28;20046;-84
2022/04/09 07:21:15;;;;;;;4.45;0.70;;;7.30;84.40;;;;;;4993469;28;20142;-82
2022/04/09 07:23:42;;;;;;;4.90;0.70;;;7.30;84.50;;;;;;4950683;28;20476;-82
2022/04/09 07:26:10;;;;;;;4.65;1.15;;;7.40;84.50;;;;;;4965024;28;20445;-84
2022/04/09 07:28:37;;;;;;;2.78;0.60;;;7.50;84.40;;;;;;4995007;28;20057;-84
2022/04/09 07:31:04;;;;;;;3.88;0.73;;;7.50;84.30;;;;;;4966914;28;20068;-83
2022/04/09 07:33:31;;;;;;;4.28;0.60;;;7.60;84.10;;;;;;4965607;28;20068;-85
2022/04/09 07:36:00;;;;;;;6.05;0.70;;;7.80;84.10;;;;;;5010444;28;20049;-86
2022/04/09 07:38:27;;;;;;;3.03;0.40;;;8.00;83.80;;;;;;4974417;28;20037;-85
2022/04/09 07:40:54;;;;;;;3.10;0.65;;;8.10;83.40;;;;;;4981092;28;20046;-85
2022/04/09 07:43:22;;;;;;;3.67;0.95;;;8.20;83.20;;;;;;4982353;28;20049;-85
2022/04/09 07:45:52;;;;;;;4.18;0.65;;;8.30;82.60;;;;;;4972497;28;20046;-85
2022/04/09 07:48:20;;;;;;;4.32;0.40;;;8.30;81.90;;;;;;4995435;28;20402;-85
2022/04/09 07:50:47;;;;;;;1.38;0.30;;;8.10;81.50;;;;;;4999748;28;20045;-85
2022/04/09 07:53:14;;;;;;;2.83;0.35;;;8.10;81.60;;;;;;4997069;28;20049;-85
2022/04/09 07:55:41;;;;;;;2.38;0.70;;;8.00;80.80;;;;;;4962217;28;20114;-85
2022/04/09 07:58:14;;;;;;;1.75;0.20;;;7.90;81.00;;;;;;4970274;28;20050;-86
2022/04/09 08:00:43;;;;;;;1.73;0.30;;;7.80;81.50;;;;;;4997776;28;20514;-85
2022/04/09 08:03:11;;;;;;;1.98;0.20;;;7.80;81.90;;;;;;4998836;28;20050;-85
2022/04/09 08:05:39;;;;;;;1.92;0.20;;;7.80;82.00;;;;;;4971358;28;20096;-85
2022/04/09 08:08:07;;;;;;;1.42;0.20;;;7.80;82.00;;;;;;4964608;28;20110;-85
2022/04/09 08:10:35;;;;;;;1.58;0.30;;;7.90;81.80;;;;;;4998082;28;20137;-84
2022/04/09 08:13:02;;;;;;;1.48;0.30;;;7.90;81.60;;;;;;4979231;28;20054;-85
2022/04/09 08:15:29;;;;;;;4.25;0.50;;;8.00;81.60;;;;;;4958862;28;20081;-84
2022/04/09 08:18:06;;;;;;;2.92;0.38;;;8.00;81.60;;;;;;4970499;28;20140;-86
2022/04/09 08:20:53;;;;;;;1.95;0.38;;;8.20;81.80;;;;;;4986919;28;20049;-86
2022/04/09 08:23:20;;;;;;;1.23;0.25;;;8.20;81.20;;;;;;4983877;28;20480;-87
2022/04/09 08:25:48;;;;;;;2.15;0.20;;;8.40;81.10;;;;;;4982345;28;20105;-87
2022/04/09 08:28:17;;;;;;;2.63;0.40;;;8.50;81.00;;;;;;4963368;28;20054;-86
2022/04/09 08:30:48;;;;;;;1.88;0.28;;;8.50;80.60;;;;;;4977008;28;20084;-85
2022/04/09 08:33:16;;;;;;;1.02;0.20;;;8.60;80.40;;;;;;4982457;28;20050;-85
2022/04/09 08:35:43;;;;;;;1.58;0.20;;;8.80;80.40;;;;;;4989436;28;20049;-85
2022/04/09 08:38:10;;;;;;;3.97;0.40;;;8.90;79.50;;;;;;4980464;28;20109;-86
2022/04/09 08:40:38;;;;;;;3.65;0.50;;;8.90;78.00;;;;;;4998373;28;20046;-85
2022/04/09 08:43:05;;;;;;;3.67;0.60;;;8.90;76.50;;;;;;4992493;28;20050;-86
2022/04/09 08:45:36;;;;;;;5.47;1.05;;;9.00;76.50;;;;;;4952084;28;20038;-84
2022/04/09 08:48:06;;;;;;;2.25;0.40;;;9.30;75.50;;;;;;5006188;28;20060;-84
2022/04/09 08:50:37;;;;;;;2.00;0.22;;;9.30;75.50;;;;;;4999483;28;20136;-85
2022/04/09 08:53:08;;;;;;;3.05;0.30;;;9.10;76.00;;;;;;4998847;28;20049;-86
2022/04/09 08:55:46;;;;;;;2.10;0.30;;;8.80;76.40;;;;;;4976338;28;20049;-85
2022/04/09 08:58:14;;;;;;;3.50;0.40;;;8.50;77.90;;;;;;4987657;28;20058;-85
2022/04/09 09:00:45;;;;;;;3.05;0.30;;;8.20;77.70;;;;;;4979165;28;20050;-87
2022/04/09 09:03:15;;;;;;;2.85;0.40;;;8.00;78.00;;;;;;4979854;28;20144;-86
2022/04/09 09:05:52;;;;;;;1.13;0.20;;;8.00;78.30;;;;;;4996821;28;20042;-86
2022/04/09 09:08:43;;;;;;;0.63;0.15;;;8.00;78.50;;;;;;4985660;28;20140;-86
2022/04/09 09:11:10;;;;;;;4.70;0.40;;;8.20;78.50;;;;;;4969767;28;20217;-86
2022/04/09 09:13:51;;;;;;;2.97;0.30;;;8.40;78.00;;;;;;4997403;28;20111;-86
2022/04/09 09:16:29;;;;;;;4.10;0.30;;;8.80;77.70;;;;;;4997024;28;20045;-86
2022/04/09 09:19:04;;;;;;;4.40;0.70;;;8.90;76.20;;;;;;4987887;28;20069;-85
2022/04/09 09:21:32;;;;;;;1.48;0.52;;;9.10;76.20;;;;;;4993644;28;20042;-85
2022/04/09 09:24:07;;;;;;;4.93;0.63;;;9.30;76.20;;;;;;4987352;28;20152;-86
2022/04/09 09:26:40;;;;;;;5.15;0.55;;;9.40;75.80;;;;;;4977486;28;20057;-85
2022/04/09 09:29:26;;;;;;;1.45;0.30;;;9.40;74.90;;;;;;4997645;28;20038;-85
2022/04/09 09:31:58;;;;;;;2.83;0.40;;;9.50;74.90;;;;;;5013310;28;20100;-85
2022/04/09 09:34:26;;;;;;;2.90;0.30;;;9.50;74.70;;;;;;4965323;28;20046;-82
2022/04/09 09:36:54;;;;;;;2.20;0.22;;;9.60;74.30;;;;;;4986485;28;20300;-83
2022/04/09 09:39:23;;;;;;;2.90;0.40;;;9.60;74.20;;;;;;4974431;28;20046;-83
2022/04/09 09:41:55;;;;;;;3.00;0.20;;;9.60;72.80;;;;;;4983767;28;20502;-81
2022/04/09 09:44:27;;;;;;;3.53;0.50;;;9.50;74.00;;;;;;4979368;28;20060;-81
2022/04/09 09:47:03;;;;;;;5.40;0.50;;;9.60;73.60;;;;;;4965033;28;20121;-80
2022/04/09 09:49:55;;;;;;;4.30;0.47;;;9.60;73.60;;;;;;4979993;28;20149;-80
2022/04/09 09:52:30;;;;;;;3.90;0.47;;;9.80;73.50;;;;;;4979490;28;20046;-79
2022/04/09 09:55:13;;;;;;;4.40;0.50;;;9.90;72.70;;;;;;4981152;28;20383;-81
2022/04/09 09:57:41;;;;;;;2.85;0.38;;;9.90;72.60;;;;;;4989070;28;20107;-80
2022/04/09 10:00:18;;;;;;;2.97;0.35;;;9.70;73.10;;;;;;4986439;28;20042;-82
2022/04/09 10:02:52;;;;;;;2.03;0.38;;;9.10;74.50;;;;;;4969069;28;20495;-82
2022/04/09 10:05:23;;;;;;;4.05;0.98;;;8.40;76.80;;;;;;4972780;28;20061;-86
2022/04/09 10:07:56;;;;;;;4.10;0.80;;;7.70;79.90;;;;;;4978131;28;20057;-85
2022/04/09 10:10:26;;;;;;;1.98;0.28;;;6.80;82.30;;;;;;4967436;28;20153;-83
2022/04/09 10:12:57;;;;;;;3.60;0.20;;;6.30;84.00;;;;;;4982880;28;20058;-82
2022/04/09 10:15:28;;;;;;;2.85;0.28;;;6.00;84.70;;;;;;5010955;28;20076;-85
2022/04/09 10:17:59;;;;;;;3.83;0.20;;;5.80;85.30;;;;;;4985135;28;20491;-83
2022/04/09 10:20:59;;;;;;;0.60;0.17;;;5.80;85.70;;;;;;4999893;28;20064;-83
2022/04/09 10:23:33;;;;;;;1.52;0.20;;;5.80;86.40;;;;;;4996327;28;20056;-85
2022/04/09 10:26:01;;;;;;;2.63;0.75;;;5.80;86.20;;;;;;4982875;28;20133;-84
2022/04/09 10:28:38;;;;;;;2.08;0.30;;;5.80;86.10;;;;;;4967263;28;20042;-85
2022/04/09 10:31:23;;;;;;;2.97;0.43;;;5.80;86.30;;;;;;4992896;28;20146;-84
2022/04/09 10:33:58;;;;;;;2.20;0.22;;;5.80;86.60;;;;;;4996273;28;20077;-83
2022/04/09 10:36:41;;;;;;;2.47;0.30;;;6.00;86.90;;;;;;4979771;28;20038;-84
2022/04/09 10:39:29;;;;;;;1.77;0.15;;;6.10;86.70;;;;;;4979629;28;20150;-83
2022/04/09 10:41:57;;;;;;;3.60;0.30;;;6.20;86.50;;;;;;4978162;28;20053;-84
2022/04/09 10:44:43;;;;;;;3.42;0.30;;;6.30;86.50;;;;;;4976428;28;20043;-84
2022/04/09 10:47:15;;;;;;;0.93;0.20;;;6.70;86.40;;;;;;5010781;28;20536;-84
2022/04/09 10:50:07;;;;;;;1.85;0.30;;;7.30;85.60;;;;;;4996219;28;20044;-85
2022/04/09 10:52:37;;;;;;;0.57;0.15;;;7.70;84.30;;;;;;4992641;28;20041;-84
2022/04/09 10:55:25;;;;;;;4.75;0.30;;;7.50;84.20;;;;;;4986067;28;20042;-85
2022/04/09 10:58:00;;;;;;;2.15;0.20;;;7.20;84.40;;;;;;4978168;28;20050;-85
2022/04/09 11:00:31;;;;;;;1.08;0.10;;;7.10;84.90;;;;;;4979797;28;20057;-85
2022/04/09 11:03:16;;;;;;;1.50;0.63;;;7.10;85.70;;;;;;4968477;28;20046;-85
2022/04/09 11:05:43;;;;;;;0.60;0.10;;;7.40;85.00;;;;;;4976661;28;20046;-84
2022/04/09 11:08:18;;;;;;;1.33;0.28;;;8.00;83.80;;;;;;4960397;28;20042;-85
2022/04/09 11:10:49;;;;;;;2.25;0.32;;;8.30;83.10;;;;;;5006740;28;20038;-85
2022/04/09 11:13:29;;;;;;;0.55;0.30;;;8.20;83.10;;;;;;4987585;28;20054;-85
2022/04/09 11:15:56;;;;;;;1.73;0.40;;;8.00;83.70;;;;;;5006851;28;20042;-86
2022/04/09 11:18:24;;;;;;;2.28;0.40;;;7.80;84.10;;;;;;4981440;28;20038;-87
2022/04/09 11:20:55;;;;;;;2.08;0.40;;;7.60;84.80;;;;;;4964752;28;20058;-88
2022/04/09 11:23:24;;;;;;;1.35;0.30;;;7.30;85.10;;;;;;4979686;28;20050;-84
2022/04/09 11:25:52;;;;;;;2.22;0.50;;;7.00;85.80;;;;;;4983247;28;20050;-85
2022/04/09 11:28:21;;;;;;;1.33;0.38;;;6.80;86.70;;;;;;5010586;28;20107;-83
2022/04/09 11:31:02;;;;;;;1.02;0.10;;;6.50;87.80;;;;;;4960470;28;20141;-84
2022/04/09 11:33:30;;;;;;;1.58;0.20;;;6.40;87.80;;;;;;4982773;28;20046;-84
2022/04/09 11:36:01;;;;;;;1.02;0.15;;;6.30;88.00;;;;;;4982851;28;20454;-82
2022/04/09 11:38:29;;;;;;;1.08;0.10;;;6.30;88.10;;;;;;4996543;28;20085;-84
2022/04/09 11:40:56;;;;;;;1.75;0.20;;;6.40;88.30;;;;;;4971696;28;20483;-84
2022/04/09 11:43:24;;;;;;;2.80;0.38;;;6.50;88.40;;;;;;5008642;28;20057;-85
2022/04/09 11:45:52;;;;;;;1.13;0.20;;;6.60;88.20;;;;;;4968506;28;20411;-84
2022/04/09 11:48:25;;;;;;;0.65;0.20;;;6.80;87.90;;;;;;4990129;28;20478;-85
2022/04/09 11:50:53;;;;;;;1.88;0.28;;;7.30;87.00;;;;;;4988402;28;20060;-85
2022/04/09 11:53:22;;;;;;;2.13;0.30;;;7.70;85.90;;;;;;4987119;28;20149;-85
2022/04/09 11:55:58;;;;;;;4.38;0.40;;;8.60;84.40;;;;;;4987330;28;20050;-84
2022/04/09 11:58:34;;;;;;;1.00;0.20;;;9.40;82.50;;;;;;4976914;28;20088;-85
2022/04/09 12:01:06;;;;;;;5.53;0.60;;;9.90;81.00;;;;;;4973974;28;20060;-85
2022/04/09 12:03:33;;;;;;;3.17;0.68;;;10.30;80.10;;;;;;4981501;28;20111;-86
2022/04/09 12:06:01;;;;;;;3.72;0.50;;;10.40;79.40;;;;;;4950730;28;20065;-85
2022/04/09 12:08:31;;;;;;;3.58;0.40;;;10.60;79.10;;;;;;4996384;28;20154;-85
2022/04/09 12:11:03;;;;;;;2.90;0.50;;;11.00;78.70;;;;;;4999743;28;20490;-83
2022/04/09 12:13:37;;;;;;;3.53;0.50;;;10.70;78.40;;;;;;5006355;28;20061;-83
2022/04/09 12:16:10;;;;;;;1.65;0.40;;;9.90;79.60;;;;;;5011286;28;20073;-82
2022/04/09 12:18:38;;;;;;;4.03;0.70;;;9.20;81.60;;;;;;4978477;28;20082;-84
2022/04/09 12:21:22;;;;;;;2.53;0.40;;;8.50;83.60;;;;;;4992759;28;20045;-83
2022/04/09 12:24:09;;;;;;;3.05;0.95;;;7.50;80.10;;;;;;5010324;28;20057;-83
2022/04/09 12:26:37;;;;;;;2.42;0.28;;;6.30;81.60;;;;;;4995328;28;20058;-84
2022/04/09 12:29:23;;;;;;;1.55;0.30;;;5.60;84.30;;;;;;5001782;28;20046;-86
2022/04/09 12:32:13;;;;;;;1.73;0.25;;;5.30;86.10;;;;;;4998912;28;20038;-87
2022/04/09 12:34:57;;;;;;;2.90;0.35;;;5.30;87.40;;;;;;4997543;28;20046;-88
2022/04/09 12:37:25;;;;;;;0.38;0.10;;;5.30;88.20;;;;;;4979591;28;20401;-83
2022/04/09 12:40:11;;;;;;;0.80;0.20;;;5.50;88.70;;;;;;4981301;28;20116;-81
2022/04/09 12:42:41;;;;;;;1.35;0.10;;;5.70;89.00;;;;;;4980972;28;20054;-85
2022/04/09 12:45:12;;;;;;;1.55;0.20;;;6.00;90.40;;;;;;4994845;28;20409;-84
2022/04/09 12:47:51;;;;;;;1.85;0.47;;;6.20;91.50;;;;;;4980860;28;20104;-83
2022/04/09 12:50:27;;;;;;;2.83;0.40;;;6.30;92.00;;;;;;4985889;28;20405;-82
2022/04/09 12:52:56;;;;;;;5.43;0.30;;;6.30;91.10;;;;;;4975768;28;20048;-83
2022/04/09 12:55:27;;;;;;;2.95;0.38;;;6.20;91.00;;;;;;4992107;28;20096;-88
2022/04/09 12:57:54;;;;;;;0.80;0.15;;;6.30;90.90;;;;;;4983404;28;20461;-86
2022/04/09 13:00:24;;;;;;;2.03;0.35;;;6.20;90.70;;;;;;5002505;28;20038;-87
2022/04/09 13:02:52;;;;;;;1.77;0.40;;;6.30;90.70;;;;;;4995383;28;20070;-86
2022/04/09 13:05:19;;;;;;;4.35;0.60;;;6.30;90.50;;;;;;4968346;28;20042;-85
2022/04/09 13:07:46;;;;;;;2.10;0.30;;;6.50;90.50;;;;;;5001917;28;20042;-86
2022/04/09 13:10:14;;;;;;;3.13;0.28;;;6.70;90.40;;;;;;4994316;28;20046;-87
2022/04/09 13:12:42;;;;;;;1.70;0.40;;;7.00;90.30;;;;;;4995491;28;20089;-88
2022/04/09 13:15:10;;;;;;;1.80;0.32;;;7.20;89.90;;;;;;4979547;28;20114;-88
2022/04/09 13:17:37;;;;;;;1.70;0.30;;;7.30;88.90;;;;;;4981981;28;20515;-82
2022/04/09 13:20:09;;;;;;;0.95;0.30;;;7.30;88.90;;;;;;4979757;28;20042;-91